Portada
METAR-TAF:

METAR-TAF

Aeroports :

Katherine, Austràlia

latitud: 14-26S, longitud: 132-16E, altitud: 108 m

Observació

L'informe es va fer fa 54 minuts, a les 20:00 UTC
Vent 4 kt del Nord/Nord-Oest
Temperatura 27°C
Humitat 70%
Pressió 1011 hPa
Visibilitat 10 km o més

METAR: YPTN 132000Z AUTO 33004KT 9999 // NCD 27/21 Q1011

Hora: 06:24 (20:54 UTC)

Pronòstic

L'informe es va fer fa 3 hores i 20 minuts, a les 17:34 UTC
Pronòstic vàlid del 13 a les 18 UTC al 14 a les 18 UTC
Vent 8 kt del Nord/Nord-Oest
Visibilitat 10 km o més
Escasses núvols a una alçada de 1500 ft
A partir de les 14 a les 0200 UTC
Vent 12 kt del Est/Sud-Est
Visibilitat 10 km o més
sense núvols per sota de 1500 mi sense presència de cumulonimbus.

TAF: YPTN 131734Z 1318/1418 33008KT 9999 FEW015 FM140200 11012KT CAVOK

Observacions i pronòstics meteorològics de més de 4000 aeroports (METAR i TAF).

Les estacions disponibles són els punts grocs i vermells al mapa.

Posi el ratolí al punt desitjat per veure el nom de l'estació.

Feu clic per veure les observacions i els pronòstics meteorològics.

Per canviar el mapa: feu clic els botons verds amb una creu de color negre per apropar; al botó verd amb un guió per allunyar la imatge; o en les fletxes verdes per a mapes adjacents.


METAR-TAF: